createdAt,value
2018-08-24T00:00:33.519Z,10.23
2018-08-24T00:03:38.021Z,8.03
2018-08-24T00:06:42.639Z,9.00
2018-08-24T00:09:47.480Z,7.60
2018-08-24T00:12:51.929Z,7.60
2018-08-24T00:15:56.344Z,4.97
2018-08-24T00:19:00.771Z,4.07
2018-08-24T00:22:05.226Z,3.63
2018-08-24T00:25:09.726Z,3.23
2018-08-24T00:28:14.483Z,2.67
2018-08-24T00:31:19.083Z,2.97
2018-08-24T00:34:23.568Z,2.57
2018-08-24T00:37:27.953Z,3.10
2018-08-24T00:40:32.329Z,3.00
2018-08-24T00:43:36.765Z,3.23
2018-08-24T00:46:41.392Z,2.80
2018-08-24T00:49:45.983Z,3.00
2018-08-24T00:52:50.432Z,3.20
2018-08-24T00:55:55.255Z,3.05
2018-08-24T00:58:59.672Z,2.70
2018-08-24T01:02:04.155Z,3.43
2018-08-24T01:05:09.258Z,3.00
2018-08-24T01:08:13.774Z,2.80
2018-08-24T01:11:18.147Z,2.60
2018-08-24T01:14:22.638Z,2.47
2018-08-24T01:17:32.303Z,2.40
2018-08-24T01:20:36.755Z,2.30
2018-08-24T01:23:41.227Z,2.30
2018-08-24T01:26:49.669Z,2.33
2018-08-24T01:29:54.800Z,2.73
2018-08-24T01:32:59.232Z,2.30
2018-08-24T01:36:04.200Z,2.87
2018-08-24T01:39:09.086Z,2.43
2018-08-24T01:42:13.440Z,2.23
2018-08-24T01:45:17.838Z,2.50
2018-08-24T01:48:22.491Z,2.77
2018-08-24T01:51:27.120Z,2.50
2018-08-24T01:54:31.550Z,2.93
2018-08-24T01:57:35.903Z,2.07
2018-08-24T02:00:52.247Z,2.10
2018-08-24T02:03:57.262Z,3.30
2018-08-24T02:07:01.611Z,4.60
2018-08-24T02:10:10.093Z,4.73
2018-08-24T02:13:19.804Z,3.17
2018-08-24T02:16:24.206Z,2.80
2018-08-24T02:19:33.469Z,3.00
2018-08-24T02:22:37.826Z,3.00
2018-08-24T02:25:42.762Z,3.10
2018-08-24T02:28:47.185Z,3.10
2018-08-24T02:31:51.897Z,3.40
2018-08-24T02:34:59.003Z,3.33
2018-08-24T02:38:03.418Z,2.97
2018-08-24T02:41:07.816Z,2.90
2018-08-24T02:44:12.485Z,2.80
2018-08-24T02:47:16.895Z,2.70
2018-08-24T02:50:21.534Z,2.70
2018-08-24T02:53:25.973Z,3.03
2018-08-24T02:56:30.361Z,2.63
2018-08-24T02:59:34.785Z,2.93
2018-08-24T03:02:39.315Z,3.20
2018-08-24T03:05:43.901Z,2.67
2018-08-24T03:08:48.415Z,2.70
2018-08-24T03:11:52.837Z,2.63
2018-08-24T03:14:57.224Z,2.67
2018-08-24T03:18:01.590Z,3.00
2018-08-24T03:21:06.202Z,3.53
2018-08-24T03:24:10.773Z,4.05
2018-08-24T03:27:15.295Z,7.60
2018-08-24T03:30:19.846Z,7.43
2018-08-24T03:33:24.207Z,5.40
2018-08-24T03:36:28.645Z,4.00
2018-08-24T03:39:33.090Z,4.27
2018-08-24T03:42:43.985Z,4.93
2018-08-24T03:45:48.495Z,7.20
2018-08-24T03:48:52.900Z,4.85
2018-08-24T03:51:57.359Z,4.77
2018-08-24T03:55:02.844Z,7.77
2018-08-24T03:58:08.293Z,7.73
2018-08-24T04:01:12.913Z,4.43
2018-08-24T04:04:17.473Z,3.50
2018-08-24T04:07:21.833Z,3.20
2018-08-24T04:10:27.243Z,5.23
2018-08-24T04:13:31.885Z,7.30
2018-08-24T04:16:41.677Z,4.10
2018-08-24T04:19:46.133Z,4.10
2018-08-24T04:22:50.502Z,3.10
2018-08-24T04:25:55.074Z,2.57
2018-08-24T04:29:00.232Z,2.80
2018-08-24T04:32:04.694Z,3.17
2018-08-24T04:35:09.076Z,4.90
2018-08-24T04:38:13.569Z,8.90
2018-08-24T04:41:17.948Z,36.00
2018-08-24T04:44:22.547Z,23.63
2018-08-24T04:47:27.017Z,8.77
2018-08-24T04:50:32.105Z,5.12
2018-08-24T04:53:36.536Z,6.10
2018-08-24T04:56:41.037Z,4.30
2018-08-24T04:59:45.851Z,4.80
2018-08-24T05:02:50.234Z,4.60
2018-08-24T05:05:54.684Z,4.00
2018-08-24T05:08:59.215Z,5.80
2018-08-24T05:12:03.840Z,4.87
2018-08-24T05:15:08.311Z,6.10
2018-08-24T05:18:12.718Z,5.53
2018-08-24T05:21:17.143Z,3.97
2018-08-24T05:24:21.668Z,3.67
2018-08-24T05:27:26.097Z,3.53
2018-08-24T05:30:30.520Z,3.33
2018-08-24T05:33:35.014Z,2.87
2018-08-24T05:36:39.652Z,2.77
2018-08-24T05:39:49.385Z,3.23
2018-08-24T05:42:53.863Z,3.40
2018-08-24T05:45:58.446Z,3.37
2018-08-24T05:49:03.090Z,3.13
2018-08-24T05:52:07.714Z,3.00
2018-08-24T05:55:12.085Z,3.10
2018-08-24T05:58:16.477Z,3.07
2018-08-24T06:01:21.069Z,3.00
2018-08-24T06:04:25.513Z,2.87
2018-08-24T06:07:29.937Z,2.63
2018-08-24T06:10:34.336Z,2.73
2018-08-24T06:13:39.104Z,2.62
2018-08-24T06:16:49.018Z,2.00
2018-08-24T06:19:53.753Z,2.30
2018-08-24T06:22:58.570Z,2.47
2018-08-24T06:26:03.461Z,2.50
2018-08-24T06:29:09.023Z,2.43
2018-08-24T06:32:13.782Z,2.17
2018-08-24T06:35:18.794Z,2.00
2018-08-24T06:38:23.575Z,2.20
2018-08-24T06:41:28.116Z,2.07
2018-08-24T06:44:32.609Z,1.60
2018-08-24T06:47:37.325Z,1.23
2018-08-24T06:50:41.796Z,1.90
2018-08-24T06:53:47.510Z,1.70
2018-08-24T06:56:52.446Z,1.80
2018-08-24T06:59:57.559Z,1.50
2018-08-24T07:03:03.865Z,1.97
2018-08-24T07:06:08.341Z,1.53
2018-08-24T07:09:12.881Z,1.43
2018-08-24T07:12:17.301Z,1.67
2018-08-24T07:15:21.715Z,1.50
2018-08-24T07:18:26.349Z,1.30
2018-08-24T07:21:30.819Z,1.47
2018-08-24T07:24:35.437Z,1.80
2018-08-24T07:27:40.070Z,1.47
2018-08-24T07:30:44.448Z,1.52
2018-08-24T07:33:48.875Z,1.70
2018-08-24T07:36:53.393Z,1.70
2018-08-24T07:39:57.923Z,1.30
2018-08-24T07:43:02.627Z,1.20
2018-08-24T07:46:08.277Z,1.37
2018-08-24T07:49:29.311Z,1.57
2018-08-24T07:52:33.819Z,1.30
2018-08-24T07:55:38.406Z,1.87
2018-08-24T07:58:42.922Z,1.27
2018-08-24T08:01:47.362Z,1.27
2018-08-24T08:04:51.905Z,1.60
2018-08-24T08:07:56.341Z,1.67
2018-08-24T08:11:01.077Z,1.70
2018-08-24T08:14:05.520Z,1.50
2018-08-24T08:17:10.088Z,1.60
2018-08-24T08:20:14.556Z,2.03
2018-08-24T08:23:19.559Z,1.60
2018-08-24T08:26:24.107Z,2.07
2018-08-24T08:29:33.870Z,1.80
2018-08-24T08:32:38.299Z,2.07
2018-08-24T08:35:43.337Z,1.23
2018-08-24T08:38:47.981Z,1.67
2018-08-24T08:41:52.418Z,1.73
2018-08-24T08:44:57.073Z,1.82
2018-08-24T08:48:01.516Z,1.43
2018-08-24T08:51:06.065Z,1.70
2018-08-24T08:54:10.793Z,1.67
2018-08-24T08:57:15.372Z,1.60
2018-08-24T09:00:19.984Z,1.73
2018-08-24T09:03:24.527Z,1.43
2018-08-24T09:06:29.753Z,1.33
2018-08-24T09:09:34.196Z,1.47
2018-08-24T09:12:38.679Z,1.63
2018-08-24T09:15:43.121Z,1.62
2018-08-24T09:18:52.920Z,1.77
2018-08-24T09:22:02.809Z,1.97
2018-08-24T09:25:12.628Z,1.77
2018-08-24T09:28:22.986Z,1.75
2018-08-24T09:31:31.426Z,1.60
2018-08-24T09:34:36.066Z,1.60
2018-08-24T09:37:40.740Z,1.40
2018-08-24T09:40:50.453Z,1.87
2018-08-24T09:44:00.125Z,1.80
2018-08-24T09:47:10.017Z,1.63
2018-08-24T09:50:19.798Z,1.83
2018-08-24T09:53:29.533Z,1.67
2018-08-24T09:56:34.772Z,1.80
2018-08-24T09:59:39.302Z,1.73
2018-08-24T10:02:44.494Z,2.00
2018-08-24T10:05:54.054Z,1.70
2018-08-24T10:08:58.880Z,1.77
2018-08-24T10:12:03.670Z,1.30
2018-08-24T10:15:09.895Z,1.60
2018-08-24T10:18:14.437Z,1.67
2018-08-24T10:21:18.906Z,2.13
2018-08-24T10:24:23.309Z,1.93
2018-08-24T10:27:27.663Z,2.27
2018-08-24T10:30:32.315Z,2.20
2018-08-24T10:33:36.772Z,2.60
2018-08-24T10:36:41.128Z,2.47
2018-08-24T10:39:45.503Z,2.80
2018-08-24T10:42:50.099Z,2.60
2018-08-24T10:45:54.550Z,2.67
2018-08-24T10:48:59.148Z,2.57
2018-08-24T10:52:03.555Z,2.23
2018-08-24T10:55:08.033Z,1.87
2018-08-24T10:58:13.782Z,2.27
2018-08-24T11:01:18.269Z,2.43
2018-08-24T11:04:22.670Z,2.27
2018-08-24T11:07:27.553Z,1.80
2018-08-24T11:10:31.997Z,2.30
2018-08-24T11:13:36.629Z,2.17
2018-08-24T11:16:41.104Z,1.87
2018-08-24T11:19:45.518Z,2.23
2018-08-24T11:22:50.021Z,2.10
2018-08-24T11:25:54.474Z,2.27
2018-08-24T11:28:59.033Z,2.27
2018-08-24T11:32:03.733Z,2.27
2018-08-24T11:35:08.238Z,2.83
2018-08-24T11:38:12.721Z,2.90
2018-08-24T11:41:17.281Z,3.10
2018-08-24T11:44:21.793Z,2.77
2018-08-24T11:47:26.557Z,3.17
2018-08-24T11:50:31.023Z,2.97
2018-08-24T11:53:35.493Z,2.80
2018-08-24T11:56:39.947Z,2.90
2018-08-24T11:59:44.441Z,3.43
2018-08-24T12:02:48.992Z,2.80
2018-08-24T12:05:53.562Z,2.90
2018-08-24T12:08:58.756Z,3.40
2018-08-24T12:12:03.371Z,3.00
2018-08-24T12:15:07.758Z,3.33
2018-08-24T12:18:12.731Z,2.62
2018-08-24T12:21:17.419Z,3.00
2018-08-24T12:24:21.931Z,2.37
2018-08-24T12:27:26.433Z,2.40
2018-08-24T12:30:30.935Z,2.60
2018-08-24T12:33:35.524Z,2.70
2018-08-24T12:36:40.225Z,2.50
2018-08-24T12:39:44.678Z,2.80
2018-08-24T12:42:49.211Z,2.53
2018-08-24T12:45:53.783Z,2.60
2018-08-24T12:48:58.380Z,2.50
2018-08-24T12:52:03.427Z,2.67
2018-08-24T12:55:09.361Z,2.70
2018-08-24T12:58:14.221Z,2.57
2018-08-24T13:01:19.382Z,2.07
2018-08-24T13:04:24.279Z,2.30
2018-08-24T13:07:29.355Z,2.23
2018-08-24T13:10:33.886Z,2.10
2018-08-24T13:13:38.727Z,2.60
2018-08-24T13:16:43.537Z,2.10
2018-08-24T13:19:48.150Z,2.37
2018-08-24T13:22:53.083Z,2.43
2018-08-24T13:25:57.775Z,2.47
2018-08-24T13:29:02.472Z,2.60
2018-08-24T13:32:07.270Z,2.40
2018-08-24T13:35:11.747Z,2.47
2018-08-24T13:38:16.342Z,2.47
2018-08-24T13:41:20.895Z,2.10
2018-08-24T13:44:27.148Z,2.03
2018-08-24T13:47:31.681Z,2.30
2018-08-24T13:50:36.225Z,2.98
2018-08-24T13:53:41.162Z,2.33
2018-08-24T13:56:45.883Z,2.40
2018-08-24T13:59:50.706Z,2.40
2018-08-24T14:02:55.482Z,3.07
2018-08-24T14:06:00.121Z,3.07
2018-08-24T14:09:06.970Z,2.63
2018-08-24T14:12:11.607Z,2.70
2018-08-24T14:15:16.607Z,2.80
2018-08-24T14:18:21.356Z,2.57
2018-08-24T14:21:25.951Z,2.60
2018-08-24T14:25:33.846Z,2.83
2018-08-24T14:28:38.415Z,3.00
2018-08-24T14:31:43.014Z,2.77
2018-08-24T14:34:47.553Z,3.52
2018-08-24T14:37:52.120Z,2.67
2018-08-24T14:40:56.747Z,2.90
2018-08-24T14:44:01.511Z,2.90
2018-08-24T14:47:06.249Z,2.50
2018-08-24T14:50:11.371Z,2.63
2018-08-24T14:53:16.064Z,2.93
2018-08-24T14:56:20.812Z,3.30
2018-08-24T14:59:25.392Z,2.87
2018-08-24T15:02:30.191Z,3.20
2018-08-24T15:05:35.038Z,2.42
2018-08-24T15:08:39.487Z,2.90
2018-08-24T15:11:43.983Z,2.67
2018-08-24T15:14:48.513Z,3.13
2018-08-24T15:17:53.099Z,3.07
2018-08-24T15:20:57.665Z,3.30
2018-08-24T15:24:02.115Z,5.70
2018-08-24T15:27:06.490Z,6.67
2018-08-24T15:30:11.099Z,6.47
2018-08-24T15:33:15.658Z,6.20
2018-08-24T15:36:21.719Z,7.00
2018-08-24T15:39:28.763Z,6.27
2018-08-24T15:42:34.278Z,6.60
2018-08-24T15:45:43.076Z,6.53
2018-08-24T15:48:47.694Z,7.17
2018-08-24T15:51:52.520Z,6.53
2018-08-24T15:54:56.987Z,6.43
2018-08-24T15:58:01.500Z,6.73
2018-08-24T16:01:05.991Z,7.07
2018-08-24T16:04:10.624Z,6.90
2018-08-24T16:07:17.925Z,5.90
2018-08-24T16:10:23.826Z,7.30
2018-08-24T16:13:28.914Z,8.03
2018-08-24T16:16:34.940Z,8.00
2018-08-24T16:19:39.587Z,7.30
2018-08-24T16:22:44.742Z,7.13
2018-08-24T16:25:49.685Z,7.77
2018-08-24T16:28:54.944Z,7.33
2018-08-24T16:31:59.495Z,7.63
2018-08-24T16:35:04.528Z,8.50
2018-08-24T16:38:09.568Z,9.47
2018-08-24T16:41:14.167Z,8.73
2018-08-24T16:44:18.637Z,9.07
2018-08-24T16:47:23.707Z,8.57
2018-08-24T16:50:28.293Z,7.10
2018-08-24T16:53:33.205Z,7.90
2018-08-24T16:56:39.374Z,7.53
2018-08-24T16:59:43.823Z,7.20
2018-08-24T17:02:48.360Z,6.97
2018-08-24T17:05:52.940Z,6.75
2018-08-24T17:08:57.600Z,7.20
2018-08-24T17:12:02.009Z,6.70
2018-08-24T17:15:07.137Z,7.07
2018-08-24T17:18:12.004Z,6.30
2018-08-24T17:21:21.260Z,6.53
2018-08-24T17:24:25.814Z,6.70
2018-08-24T17:27:30.310Z,7.43
2018-08-24T17:30:35.005Z,6.23
2018-08-24T17:33:39.648Z,6.50
2018-08-24T17:36:44.069Z,6.23
2018-08-24T17:39:48.585Z,6.63
2018-08-24T17:42:53.045Z,7.17
2018-08-24T17:45:58.070Z,7.43
2018-08-24T17:49:02.593Z,7.03
2018-08-24T17:52:06.993Z,8.33
2018-08-24T17:55:11.566Z,7.83
2018-08-24T17:58:15.937Z,7.67
2018-08-24T18:01:20.313Z,7.47
2018-08-24T18:04:24.681Z,6.50
2018-08-24T18:07:29.180Z,5.17
2018-08-24T18:10:33.686Z,5.13
2018-08-24T18:13:38.292Z,5.63
2018-08-24T18:16:42.736Z,4.43
2018-08-24T18:19:47.308Z,4.80
2018-08-24T18:22:52.113Z,5.57
2018-08-24T18:25:59.150Z,5.23
2018-08-24T18:29:03.918Z,5.30
2018-08-24T18:32:08.647Z,5.67
2018-08-24T18:35:13.183Z,5.70
2018-08-24T18:38:18.068Z,4.65
2018-08-24T18:41:22.581Z,4.37
2018-08-24T18:44:27.103Z,4.63
2018-08-24T18:47:32.873Z,4.67
2018-08-24T18:50:37.688Z,4.83
2018-08-24T18:53:42.452Z,4.97
2018-08-24T18:56:46.885Z,4.97
2018-08-24T18:59:51.616Z,5.00
2018-08-24T19:02:56.020Z,5.30
2018-08-24T19:06:00.533Z,4.60
2018-08-24T19:09:07.925Z,6.93
2018-08-24T19:12:17.674Z,5.43
2018-08-24T19:15:22.376Z,6.33
2018-08-24T19:18:32.174Z,6.90
2018-08-24T19:21:43.671Z,8.10
2018-08-24T19:24:48.598Z,7.27
2018-08-24T19:27:58.455Z,6.17
2018-08-24T19:31:03.109Z,6.50
2018-08-24T19:34:07.857Z,6.57
2018-08-24T19:37:12.490Z,6.23
2018-08-24T19:40:22.360Z,6.70
2018-08-24T19:43:28.530Z,6.50
2018-08-24T19:46:34.938Z,4.77
2018-08-24T19:49:39.734Z,5.13
2018-08-24T19:52:44.253Z,5.83
2018-08-24T19:55:49.035Z,5.07
2018-08-24T19:58:58.950Z,4.87
2018-08-24T20:02:03.603Z,4.93
2018-08-24T20:05:08.271Z,5.07
2018-08-24T20:08:18.143Z,6.33
2018-08-24T20:11:23.149Z,5.07
2018-08-24T20:14:34.689Z,4.80
2018-08-24T20:17:39.032Z,5.43
2018-08-24T20:20:43.535Z,5.47
2018-08-24T20:23:47.944Z,5.03
2018-08-24T20:26:52.634Z,5.40
2018-08-24T20:29:57.091Z,4.97
2018-08-24T20:33:01.702Z,6.03
2018-08-24T20:36:07.118Z,4.47
2018-08-24T20:39:12.366Z,5.07
2018-08-24T20:42:16.902Z,5.93
2018-08-24T20:45:22.238Z,4.40
2018-08-24T20:48:28.160Z,4.70
2018-08-24T20:51:32.896Z,5.30
2018-08-24T20:54:37.818Z,5.20
2018-08-24T20:57:42.255Z,6.10
2018-08-24T21:00:48.802Z,5.47
2018-08-24T21:03:53.290Z,6.23
2018-08-24T21:06:57.849Z,5.87
2018-08-24T21:10:02.468Z,5.73
2018-08-24T21:13:07.276Z,6.43
2018-08-24T21:16:13.688Z,6.87
2018-08-24T21:19:18.213Z,6.03
2018-08-24T21:22:22.978Z,6.30
2018-08-24T21:25:27.669Z,5.90
2018-08-24T21:28:32.051Z,6.33
2018-08-24T21:31:36.497Z,6.30
2018-08-24T21:34:40.910Z,6.53
2018-08-24T21:37:45.346Z,6.93
2018-08-24T21:40:49.745Z,5.70
2018-08-24T21:43:54.308Z,6.17
2018-08-24T21:46:58.729Z,7.03
2018-08-24T21:50:03.173Z,6.50
2018-08-24T21:53:07.712Z,6.63
2018-08-24T21:56:12.111Z,6.67
2018-08-24T21:59:16.497Z,6.97
2018-08-24T22:02:21.031Z,6.87
2018-08-24T22:05:25.406Z,7.80
2018-08-24T22:08:29.845Z,7.33
2018-08-24T22:11:34.496Z,6.07
2018-08-24T22:14:38.913Z,6.97
2018-08-24T22:17:43.389Z,6.50
2018-08-24T22:20:47.800Z,7.20
2018-08-24T22:23:52.387Z,7.70
2018-08-24T22:26:56.856Z,6.30
2018-08-24T22:30:01.378Z,6.67
2018-08-24T22:33:05.752Z,7.13
2018-08-24T22:36:10.406Z,6.93
2018-08-24T22:39:17.346Z,7.60
2018-08-24T22:42:22.549Z,6.87
2018-08-24T22:45:27.391Z,6.97
2018-08-24T22:48:32.662Z,7.73
2018-08-24T22:51:37.157Z,6.53
2018-08-24T22:54:41.689Z,7.30
2018-08-24T22:57:46.058Z,6.73
2018-08-24T23:00:50.545Z,6.57
2018-08-24T23:03:55.146Z,6.93
2018-08-24T23:06:59.549Z,6.77
2018-08-24T23:10:04.073Z,6.00
2018-08-24T23:13:08.547Z,6.77
2018-08-24T23:16:13.303Z,7.13
2018-08-24T23:19:17.677Z,6.90
2018-08-24T23:22:22.100Z,6.37
2018-08-24T23:25:26.579Z,6.73
2018-08-24T23:28:31.053Z,6.67
2018-08-24T23:31:35.440Z,7.27
2018-08-24T23:34:39.820Z,7.10
2018-08-24T23:37:44.277Z,7.30
2018-08-24T23:40:48.681Z,6.47
2018-08-24T23:43:53.116Z,6.47
2018-08-24T23:46:57.502Z,6.33
2018-08-24T23:50:01.937Z,6.90
2018-08-24T23:53:06.370Z,7.00
2018-08-24T23:56:10.777Z,6.43
2018-08-24T23:59:15.363Z,7.20
